This is the latest recevied weather packets stored in our database for station/object EA5AER-5. If no packets are shown the sender has not sent any weather packets the latest 10 day(s).
| Time | Temp. | Humidity | Pressure | Rain* | Wind** | Luminosity | Snow |
|---|---|---|---|---|---|---|---|
| 1777114082 | 18.89° C | 58% | 1016.7 hPa | 0 mm | - | 851 W/m² | - |
| 1777112829 | 18.33° C | 59% | 1016.7 hPa | 0 mm | - | 411 W/m² | - |
| 1777111568 | 18.33° C | 59% | 1016.7 hPa | 0 mm | - | 411 W/m² | - |
| 1777110367 | 18.89° C | 62% | 1016.8 hPa | 0 mm | - | 780 W/m² | - |
| 1777109174 | 18.33° C | 63% | 1016.7 hPa | 0 mm | - | 455 W/m² | - |
| 1777107924 | 18.33° C | 63% | 1016.7 hPa | 0 mm | - | 455 W/m² | - |
| 1777106705 | 18.33° C | 62% | 1016.6 hPa | 0 mm | - | 455 W/m² | - |
| 1777105419 | 17.78° C | 59% | 1016.5 hPa | 0 mm | - | 237 W/m² | - |
| 1777104214 | 16.11° C | 61% | 1015.7 hPa | 0 mm | - | 83 W/m² | - |
| 1777103108 | 16.11° C | 61% | 1015.7 hPa | 0 mm | - | 83 W/m² | - |
| 1777101889 | 16.11° C | 61% | 1015.7 hPa | 0 mm | - | 83 W/m² | - |
| 1777100742 | 16.11° C | 61% | 1015.7 hPa | 0 mm | - | 83 W/m² | - |
| 1777099443 | 16.11° C | 61% | 1015.7 hPa | 0 mm | - | 83 W/m² | - |
| 1777098184 | 16.11° C | 64% | 1015.7 hPa | 0 mm | - | 62 W/m² | - |
| 1777097062 | 15.56° C | 53% | 1015.5 hPa | 0 mm | - | 16 W/m² | - |
| 1777095950 | 15.56° C | 53% | 1015.5 hPa | 0 mm | - | 16 W/m² | - |
| 1777094654 | 16.11° C | 56% | 1015.4 hPa | 0 mm | - | 5 W/m² | - |
| 1777093400 | 15.56° C | 50% | 1015.3 hPa | 0 mm | - | 0 W/m² | - |
| 1777092175 | 15.56° C | 50% | 1015.3 hPa | 0 mm | - | 0 W/m² | - |
| 1777091004 | 15.56° C | 50% | 1015.3 hPa | 0 mm | - | 0 W/m² | - |
| 1777089834 | 16.11° C | 25% | 1015.6 hPa | 0 mm | - | 0 W/m² | - |
| 1777088624 | 16.11° C | 25% | 1015.6 hPa | 0 mm | - | 0 W/m² | - |
| 1777087384 | 16.11° C | 25% | 1015.6 hPa | 0 mm | - | 0 W/m² | - |
| 1777086048 | 16.11° C | 25% | 1015.6 hPa | 0 mm | - | 0 W/m² | - |
| 1777084838 | 16.67° C | 26% | 1015.6 hPa | 0 mm | - | 0 W/m² | - |
* Rain latest hour (hover to see other rain measurements)
** Current wind speed in m/s (hover to see current wind gust speed)